This is the latest recevied weather packets stored in our database for station/object KB0BS-13. If no packets are shown the sender has not sent any weather packets the latest 10 day(s).
| Time | Temp. | Humidity | Pressure | Rain* | Wind** | Luminosity | Snow |
|---|---|---|---|---|---|---|---|
| 1778289355 | 6.67° C | 63% | 1005.8 hPa | 0 mm | - | 0 W/m² | - |
| 1778289051 | 7.22° C | 65% | 1005.7 hPa | 0 mm | - | 1 W/m² | - |
| 1778288446 | 8.89° C | 51% | 1005.7 hPa | 0 mm | - | 2 W/m² | - |
| 1778288144 | 9.44° C | 51% | 1005.8 hPa | 0 mm | - | 3 W/m² | - |
| 1778287238 | 10° C | 49% | 1005.9 hPa | 0 mm | - | 10 W/m² | - |
| 1778286331 | 10.56° C | 48% | 1005.8 hPa | 0 mm | - | 21 W/m² | - |
| 1778285421 | 11.67° C | 47% | 1005.7 hPa | 0 mm | - | 32 W/m² | - |
| 1778285120 | 11.67° C | 46% | 1005.9 hPa | 0 mm | - | 39 W/m² | - |
| 1778283907 | 11.67° C | 42% | 1006 hPa | 0 mm | - | 58 W/m² | - |
| 1778281788 | 12.78° C | 40% | 1006.2 hPa | 0 mm | - | 122 W/m² | - |
| 1778280273 | 12.78° C | 40% | 1005.9 hPa | 0 mm | - | 163 W/m² | - |
| 1778279970 | 13.33° C | 39% | 1006 hPa | 0 mm | - | 190 W/m² | - |
| 1778279365 | 13.33° C | 39% | 1006.3 hPa | 0 mm | - | 214 W/m² | - |
| 1778279063 | 13.33° C | 39% | 1006.2 hPa | 0 mm | - | 225 W/m² | - |
| 1778278759 | 13.33° C | 38% | 1006 hPa | 0 mm | - | 265 W/m² | - |
| 1778278454 | 12.78° C | 39% | 1006.4 hPa | 0 mm | - | 327 W/m² | - |
| 1778278151 | 12.78° C | 41% | 1006.4 hPa | 0 mm | - | 189 W/m² | - |
| 1778277847 | 12.78° C | 40% | 1006.4 hPa | 0 mm | - | 216 W/m² | - |
| 1778277544 | 12.78° C | 42% | 1006.4 hPa | 0 mm | - | 262 W/m² | - |
| 1778277241 | 12.78° C | 40% | 1006.3 hPa | 0 mm | - | 191 W/m² | - |
| 1778276635 | 12.78° C | 40% | 1006.4 hPa | 0 mm | - | 285 W/m² | - |
| 1778276028 | 12.78° C | 40% | 1006.4 hPa | 0 mm | - | 231 W/m² | - |
| 1778275421 | 13.33° C | 39% | 1006 hPa | 0 mm | - | 366 W/m² | - |
| 1778273898 | 12.78° C | 41% | 1006.2 hPa | 0 mm | - | 570 W/m² | - |
| 1778272684 | 12.22° C | 42% | 1006.4 hPa | 0 mm | - | 326 W/m² | - |
* Rain latest hour (hover to see other rain measurements)
** Current wind speed in m/s (hover to see current wind gust speed)